createdAt,value
2022-12-22T00:01:38.094Z,99595.81
2022-12-22T00:04:27.707Z,99602.75
2022-12-22T00:07:13.796Z,99599.25
2022-12-22T00:09:59.829Z,99598.31
2022-12-22T00:12:47.929Z,99606.03
2022-12-22T00:15:35.681Z,99597.41
2022-12-22T00:18:22.395Z,99601.69
2022-12-22T00:21:08.591Z,99596.53
2022-12-22T00:23:54.439Z,99608.53
2022-12-22T00:26:40.611Z,99613.72
2022-12-22T00:29:33.512Z,99612.03
2022-12-22T00:32:20.044Z,99608.50
2022-12-22T00:35:06.687Z,99605.91
2022-12-22T00:37:53.843Z,99603.31
2022-12-22T00:40:47.232Z,99589.38
2022-12-22T00:43:33.866Z,99597.06
2022-12-22T00:46:23.013Z,99600.53
2022-12-22T00:49:09.831Z,99594.59
2022-12-22T00:51:55.526Z,99592.91
2022-12-22T00:54:42.141Z,99601.59
2022-12-22T00:57:34.982Z,99592.16
2022-12-22T01:00:21.245Z,99592.06
2022-12-22T01:03:09.123Z,99593.69
2022-12-22T01:05:55.057Z,99595.34
2022-12-22T01:08:40.712Z,99592.69
2022-12-22T01:11:26.818Z,99588.34
2022-12-22T01:14:12.890Z,99584.91
2022-12-22T01:16:58.880Z,99593.53
2022-12-22T01:19:46.341Z,99582.38
2022-12-22T01:22:36.362Z,99578.94
2022-12-22T01:25:30.561Z,99592.88
2022-12-22T01:28:16.531Z,99585.16
2022-12-22T01:31:04.437Z,99581.72
2022-12-22T01:33:55.096Z,99575.72
2022-12-22T01:36:43.091Z,99573.91
2022-12-22T01:39:32.697Z,99573.13
2022-12-22T01:42:24.211Z,99574.09
2022-12-22T01:45:10.013Z,99566.19
2022-12-22T01:47:56.567Z,99568.75
2022-12-22T01:50:47.909Z,99570.38
2022-12-22T01:53:38.934Z,99570.38
2022-12-22T01:56:26.515Z,99590.22
2022-12-22T01:59:18.951Z,99589.25
2022-12-22T02:02:05.312Z,99587.34
2022-12-22T02:04:56.439Z,99589.84
2022-12-22T02:07:57.164Z,99590.78
2022-12-22T02:11:07.639Z,99586.50
2022-12-22T02:14:29.696Z,99596.94
2022-12-22T02:17:26.041Z,99588.38
2022-12-22T02:20:34.917Z,99589.31
2022-12-22T02:23:33.631Z,99594.50
2022-12-22T02:26:38.912Z,99590.16
2022-12-22T02:29:26.453Z,99590.94
2022-12-22T02:32:18.267Z,99593.63
2022-12-22T02:35:05.558Z,99591.06
2022-12-22T02:38:01.325Z,99585.03
2022-12-22T02:40:54.273Z,99587.63
2022-12-22T02:44:01.498Z,99570.50
2022-12-22T02:46:53.818Z,99583.38
2022-12-22T02:49:46.650Z,99580.00
2022-12-22T02:52:36.729Z,99579.22
2022-12-22T02:55:24.413Z,99577.50
2022-12-22T02:58:10.744Z,99590.44
2022-12-22T03:00:58.901Z,99586.84
2022-12-22T03:03:45.060Z,99579.88
2022-12-22T03:06:30.632Z,99584.28
2022-12-22T03:09:16.160Z,99577.41
2022-12-22T03:12:01.685Z,99577.47
2022-12-22T03:14:47.474Z,99583.50
2022-12-22T03:17:34.727Z,99578.31
2022-12-22T03:20:20.881Z,99573.13
2022-12-22T03:23:06.469Z,99582.53
2022-12-22T03:25:54.245Z,99580.78
2022-12-22T03:28:24.339Z,99596.34
2022-12-22T03:30:57.730Z,99588.53
2022-12-22T03:33:29.599Z,99588.56
2022-12-22T03:35:58.756Z,99591.16
2022-12-22T03:38:27.602Z,99586.88
2022-12-22T03:40:56.130Z,99592.00
2022-12-22T03:43:42.860Z,99583.34
2022-12-22T03:46:30.589Z,99583.34
2022-12-22T03:49:13.145Z,99586.81
2022-12-22T03:51:45.092Z,99581.63
2022-12-22T03:54:15.289Z,99577.34
2022-12-22T03:56:44.461Z,99577.34
2022-12-22T03:59:13.563Z,99578.19
2022-12-22T04:01:43.551Z,99583.31
2022-12-22T04:04:15.185Z,99578.94
2022-12-22T04:06:44.082Z,99582.38
2022-12-22T04:09:12.719Z,99580.59
2022-12-22T04:11:59.621Z,99579.59
2022-12-22T04:14:33.994Z,99570.09
2022-12-22T04:17:03.499Z,99565.75
2022-12-22T04:19:33.810Z,99563.25
2022-12-22T04:22:02.851Z,99560.69
2022-12-22T04:24:31.311Z,99567.53
2022-12-22T04:26:59.608Z,99562.41
2022-12-22T04:29:27.940Z,99555.53
2022-12-22T04:31:56.577Z,99555.59
2022-12-22T04:34:24.902Z,99545.28
2022-12-22T04:36:54.889Z,99556.63
2022-12-22T04:39:23.334Z,99567.06
2022-12-22T04:41:52.168Z,99570.53
2022-12-22T04:44:20.452Z,99571.31
2022-12-22T04:46:48.809Z,99573.78
2022-12-22T04:49:17.414Z,99565.13
2022-12-22T04:51:45.709Z,99558.16
2022-12-22T04:54:16.730Z,99562.41
2022-12-22T04:56:45.548Z,99559.75
2022-12-22T04:59:14.033Z,99553.56
2022-12-22T05:01:42.645Z,99544.94
2022-12-22T05:04:11.281Z,99549.28
2022-12-22T05:06:40.521Z,99549.28
2022-12-22T05:09:08.844Z,99547.50
2022-12-22T05:11:39.094Z,99540.72
2022-12-22T05:14:07.682Z,99539.84
2022-12-22T05:16:36.366Z,99540.72
2022-12-22T05:19:05.107Z,99541.53
2022-12-22T05:21:33.561Z,99537.22
2022-12-22T05:24:02.056Z,99528.59
2022-12-22T05:26:30.455Z,99521.84
2022-12-22T05:29:00.103Z,99523.59
2022-12-22T05:31:29.368Z,99518.63
2022-12-22T05:33:58.106Z,99520.38
2022-12-22T05:36:26.416Z,99523.63
2022-12-22T05:38:54.932Z,99518.34
2022-12-22T05:41:24.113Z,99513.94
2022-12-22T05:43:52.950Z,99518.13
2022-12-22T05:46:23.783Z,99513.00
2022-12-22T05:48:52.159Z,99513.84
2022-12-22T05:51:20.490Z,99521.63
2022-12-22T05:53:48.921Z,99525.16
2022-12-22T05:56:17.249Z,99521.69
2022-12-22T05:58:45.877Z,99527.72
2022-12-22T06:01:14.208Z,99518.28
2022-12-22T06:03:44.545Z,99523.47
2022-12-22T06:06:12.990Z,99516.56
2022-12-22T06:08:41.317Z,99526.09
2022-12-22T06:11:09.853Z,99529.59
2022-12-22T06:13:38.366Z,99522.78
2022-12-22T06:16:07.041Z,99528.88
2022-12-22T06:18:35.553Z,99528.97
2022-12-22T06:21:05.696Z,99526.41
2022-12-22T06:23:34.419Z,99529.00
2022-12-22T06:26:03.683Z,99524.66
2022-12-22T06:28:32.750Z,99523.88
2022-12-22T06:31:01.352Z,99535.06
2022-12-22T06:33:29.799Z,99528.19
2022-12-22T06:35:59.495Z,99530.78
2022-12-22T06:38:30.010Z,99526.47
2022-12-22T06:40:58.519Z,99529.09
2022-12-22T06:43:26.349Z,99527.31
2022-12-22T06:45:55.057Z,99528.13
2022-12-22T06:48:24.241Z,99524.63
2022-12-22T06:50:53.194Z,99516.78
2022-12-22T06:53:21.658Z,99520.22
2022-12-22T06:55:51.416Z,99524.53
2022-12-22T06:58:19.782Z,99532.31
2022-12-22T07:00:49.953Z,99524.56
2022-12-22T07:03:18.470Z,99525.44
2022-12-22T07:05:47.030Z,99510.06
2022-12-22T07:08:15.411Z,99511.78
2022-12-22T07:11:01.660Z,99515.31
2022-12-22T07:13:37.739Z,99512.66
2022-12-22T07:16:08.416Z,99542.69
2022-12-22T07:18:38.630Z,99523.56
2022-12-22T07:21:08.811Z,99521.75
2022-12-22T07:23:37.642Z,99532.22
2022-12-22T07:26:06.778Z,99535.69
2022-12-22T07:28:39.057Z,99539.97
2022-12-22T07:31:07.225Z,99537.38
2022-12-22T07:33:36.031Z,99534.78
2022-12-22T07:36:07.149Z,99540.78
2022-12-22T07:38:37.902Z,99527.78
2022-12-22T07:41:28.179Z,99531.28
2022-12-22T07:43:58.431Z,99520.22
2022-12-22T07:46:28.916Z,99530.53
2022-12-22T07:49:15.076Z,99532.22
2022-12-22T07:51:44.438Z,99528.72
2022-12-22T07:54:15.363Z,99524.34
2022-12-22T07:56:45.646Z,99521.69
2022-12-22T07:59:16.103Z,99518.09
2022-12-22T08:01:45.777Z,99509.41
2022-12-22T08:04:15.688Z,99518.94
2022-12-22T08:06:44.269Z,99518.84
2022-12-22T08:09:16.283Z,99517.03
2022-12-22T08:11:44.895Z,99518.72
2022-12-22T08:14:13.496Z,99520.28
2022-12-22T08:16:43.669Z,99520.00
2022-12-22T08:19:12.547Z,99508.63
2022-12-22T08:21:44.223Z,99518.69
2022-12-22T08:24:18.711Z,99514.94
2022-12-22T08:26:50.857Z,99511.41
2022-12-22T08:29:23.099Z,99506.03
2022-12-22T08:32:13.548Z,99504.94
2022-12-22T08:34:45.374Z,99502.19
2022-12-22T08:37:18.135Z,99503.06
2022-12-22T08:39:49.870Z,99498.72
2022-12-22T08:42:20.106Z,99490.88
2022-12-22T08:44:53.394Z,99491.75
2022-12-22T08:47:25.009Z,99494.16
2022-12-22T08:49:53.444Z,99486.13
2022-12-22T08:52:21.920Z,99498.78
2022-12-22T08:54:50.515Z,99487.41
2022-12-22T08:57:19.062Z,99490.09
2022-12-22T08:59:48.308Z,99490.94
2022-12-22T09:02:16.926Z,99488.44
2022-12-22T09:04:47.210Z,99482.50
2022-12-22T09:07:16.214Z,99475.66
2022-12-22T09:09:44.914Z,99468.78
2022-12-22T09:12:13.319Z,99460.09
2022-12-22T09:14:41.893Z,99459.63
2022-12-22T09:17:10.344Z,99459.38
2022-12-22T09:19:38.842Z,99456.41
2022-12-22T09:22:09.546Z,99455.06
2022-12-22T09:24:38.032Z,99446.94
2022-12-22T09:27:06.786Z,99445.25
2022-12-22T09:29:35.300Z,99442.00
2022-12-22T09:32:04.167Z,99441.31
2022-12-22T09:34:32.976Z,99435.19
2022-12-22T09:37:01.619Z,99440.13
2022-12-22T09:39:32.174Z,99440.75
2022-12-22T09:42:02.159Z,99425.81
2022-12-22T09:44:34.756Z,99428.19
2022-12-22T09:47:05.934Z,99420.22
2022-12-22T09:49:34.730Z,99418.19
2022-12-22T09:52:05.753Z,99415.34
2022-12-22T09:54:35.785Z,99421.13
2022-12-22T09:57:07.989Z,99417.38
2022-12-22T09:59:37.149Z,99407.72
2022-12-22T10:02:18.638Z,99418.72
2022-12-22T10:05:18.941Z,99408.88
2022-12-22T10:07:47.763Z,99401.41
2022-12-22T10:10:25.494Z,99385.94
2022-12-22T10:12:56.530Z,99379.53
2022-12-22T10:15:26.028Z,99378.25
2022-12-22T10:18:09.205Z,99374.13
2022-12-22T10:20:40.019Z,99381.44
2022-12-22T10:23:18.620Z,99371.34
2022-12-22T10:28:59.836Z,99365.13
2022-12-22T10:31:29.843Z,99362.59
2022-12-22T10:34:11.961Z,99362.81
2022-12-22T10:36:42.429Z,99357.00
2022-12-22T10:39:13.254Z,99351.88
2022-12-22T10:41:46.066Z,99351.59
2022-12-22T10:44:24.327Z,99361.03
2022-12-22T10:46:54.526Z,99365.22
2022-12-22T10:49:25.955Z,99353.03
2022-12-22T10:51:57.190Z,99347.84
2022-12-22T10:54:34.268Z,99347.13
2022-12-22T10:57:08.074Z,99342.00
2022-12-22T10:59:49.352Z,99341.16
2022-12-22T11:02:38.237Z,99337.59
2022-12-22T11:05:09.993Z,99336.63
2022-12-22T11:07:40.975Z,99339.13
2022-12-22T11:10:18.685Z,99331.13
2022-12-22T11:13:12.041Z,99321.69
2022-12-22T11:15:46.750Z,99321.81
2022-12-22T11:18:28.046Z,99328.81
2022-12-22T11:21:02.637Z,99326.50
2022-12-22T11:23:38.205Z,99318.84
2022-12-22T11:26:15.215Z,99316.16
2022-12-22T11:29:15.443Z,99311.63
2022-12-22T11:31:58.875Z,99313.22
2022-12-22T11:34:43.778Z,99306.44
2022-12-22T11:37:27.663Z,99308.06
2022-12-22T11:40:05.164Z,99298.47
2022-12-22T11:42:48.831Z,99295.81
2022-12-22T11:45:41.033Z,99300.16
2022-12-22T11:48:36.407Z,99285.63
2022-12-22T11:51:11.713Z,99278.28
2022-12-22T11:54:14.248Z,99270.88
2022-12-22T11:56:46.361Z,99276.50
2022-12-22T11:59:31.385Z,99282.72
2022-12-22T12:02:21.107Z,99275.84
2022-12-22T12:05:12.719Z,99273.25
2022-12-22T12:07:44.616Z,99274.19
2022-12-22T12:10:16.410Z,99269.19
2022-12-22T12:12:54.186Z,99269.38
2022-12-22T12:15:29.301Z,99271.28
2022-12-22T12:18:32.344Z,99270.34
2022-12-22T12:21:18.318Z,99258.94
2022-12-22T12:24:03.199Z,99260.34
2022-12-22T12:26:34.437Z,99252.97
2022-12-22T12:29:12.763Z,99234.25
2022-12-22T12:31:45.331Z,99232.22
2022-12-22T12:34:18.493Z,99239.28
2022-12-22T12:36:52.830Z,99236.22
2022-12-22T12:39:30.694Z,99241.09
2022-12-22T12:42:10.184Z,99230.34
2022-12-22T12:44:39.797Z,99225.38
2022-12-22T12:47:26.639Z,99223.78
2022-12-22T12:50:01.071Z,99223.13
2022-12-22T12:53:14.256Z,99208.63
2022-12-22T12:56:10.601Z,99205.59
2022-12-22T12:58:53.695Z,99214.47
2022-12-22T13:01:57.247Z,99212.97
2022-12-22T13:05:14.633Z,99215.66
2022-12-22T13:08:14.647Z,99216.72
2022-12-22T13:10:46.505Z,99203.91
2022-12-22T13:13:53.671Z,99202.25
2022-12-22T13:16:27.385Z,99203.13
2022-12-22T13:19:00.151Z,99201.44
2022-12-22T13:21:52.820Z,99192.88
2022-12-22T13:24:31.056Z,99187.91
2022-12-22T13:27:07.843Z,99185.44
2022-12-22T13:29:45.416Z,99194.19
2022-12-22T13:32:27.123Z,99190.84
2022-12-22T13:35:30.489Z,99183.06
2022-12-22T13:37:54.881Z,99184.75
2022-12-22T13:40:26.185Z,99183.06
2022-12-22T13:42:58.772Z,99182.44
2022-12-22T13:45:37.783Z,99182.56
2022-12-22T13:48:14.636Z,99178.53
2022-12-22T13:50:46.763Z,99179.59
2022-12-22T13:53:58.128Z,99175.47
2022-12-22T13:56:16.253Z,99170.38
2022-12-22T13:58:48.053Z,99172.06
2022-12-22T14:01:19.564Z,99172.97
2022-12-22T14:04:01.737Z,99182.44
2022-12-22T14:06:33.150Z,99179.88
2022-12-22T14:09:13.302Z,99173.81
2022-12-22T14:11:51.021Z,99167.81
2022-12-22T14:14:25.111Z,99163.59
2022-12-22T14:16:56.693Z,99165.56
2022-12-22T14:19:26.741Z,99164.88
2022-12-22T14:22:05.070Z,99157.09
2022-12-22T14:24:42.040Z,99153.72
2022-12-22T14:27:20.557Z,99148.56
2022-12-22T14:29:49.138Z,99155.59
2022-12-22T14:32:34.793Z,99156.44
2022-12-22T14:35:03.874Z,99152.13
2022-12-22T14:37:33.308Z,99156.41
2022-12-22T14:40:01.955Z,99146.88
2022-12-22T14:42:33.669Z,99146.22
2022-12-22T14:45:03.366Z,99147.25
2022-12-22T14:47:31.775Z,99140.53
2022-12-22T14:50:15.201Z,99140.72
2022-12-22T14:52:46.849Z,99134.88
2022-12-22T14:55:26.729Z,99132.50
2022-12-22T14:57:59.787Z,99124.06
2022-12-22T15:00:33.633Z,99131.13
2022-12-22T15:03:04.515Z,99134.69
2022-12-22T15:05:36.351Z,99139.13
2022-12-22T15:08:07.952Z,99142.72
2022-12-22T15:10:39.199Z,99140.16
2022-12-22T15:13:20.143Z,99138.47
2022-12-22T15:15:48.684Z,99145.34
2022-12-22T15:18:17.390Z,99138.34
2022-12-22T15:20:45.884Z,99136.63
2022-12-22T15:23:17.163Z,99135.69
2022-12-22T15:25:46.270Z,99132.19
2022-12-22T15:28:16.074Z,99121.88
2022-12-22T15:30:44.641Z,99118.47
2022-12-22T15:33:15.427Z,99121.03
2022-12-22T15:35:45.150Z,99116.75
2022-12-22T15:38:15.866Z,99110.78
2022-12-22T15:40:45.095Z,99103.91
2022-12-22T15:43:55.647Z,99106.53
2022-12-22T15:46:06.719Z,99097.03
2022-12-22T15:48:37.581Z,99097.13
2022-12-22T15:51:08.945Z,99098.00
2022-12-22T15:53:38.564Z,99105.88
2022-12-22T15:56:17.429Z,99101.75
2022-12-22T15:58:48.337Z,99104.44
2022-12-22T16:01:17.005Z,99102.00
2022-12-22T16:03:45.662Z,99096.91
2022-12-22T16:06:16.575Z,99091.06
2022-12-22T16:08:49.778Z,99094.63
2022-12-22T16:11:19.491Z,99095.75
2022-12-22T16:13:50.658Z,99086.44
2022-12-22T16:16:19.637Z,99087.31
2022-12-22T16:18:48.225Z,99092.63
2022-12-22T16:21:20.029Z,99085.00
2022-12-22T16:23:49.321Z,99083.38
2022-12-22T16:26:20.566Z,99083.47
2022-12-22T16:28:51.450Z,99077.53
2022-12-22T16:31:22.825Z,99078.44
2022-12-22T16:33:52.376Z,99075.94
2022-12-22T16:36:21.180Z,99081.22
2022-12-22T16:38:50.121Z,99084.75
2022-12-22T16:41:24.521Z,99084.75
2022-12-22T16:44:03.807Z,99074.34
2022-12-22T16:46:38.055Z,99071.75
2022-12-22T16:49:09.937Z,99069.25
2022-12-22T16:51:48.490Z,99065.78
2022-12-22T16:54:17.354Z,99055.34
2022-12-22T16:56:47.270Z,99056.72
2022-12-22T16:59:17.761Z,99061.00
2022-12-22T17:01:51.751Z,99054.13
2022-12-22T17:04:24.536Z,99055.81
2022-12-22T17:06:55.346Z,99055.63
2022-12-22T17:09:27.411Z,99059.84
2022-12-22T17:11:56.649Z,99055.44
2022-12-22T17:14:32.736Z,99055.53
2022-12-22T17:17:01.616Z,99049.41
2022-12-22T17:19:30.270Z,99052.69
2022-12-22T17:22:00.230Z,99045.75
2022-12-22T17:24:29.538Z,99039.66
2022-12-22T17:27:02.157Z,99039.53
2022-12-22T17:29:32.463Z,99043.69
2022-12-22T17:32:00.836Z,99047.97
2022-12-22T17:34:29.508Z,99036.75
2022-12-22T17:36:59.490Z,99040.97
2022-12-22T17:39:28.502Z,99046.97
2022-12-22T17:41:57.648Z,99045.91
2022-12-22T17:44:28.253Z,99049.28
2022-12-22T17:46:58.791Z,99063.81
2022-12-22T17:49:27.506Z,99051.59
2022-12-22T17:51:56.651Z,99043.72
2022-12-22T17:54:27.520Z,99050.56
2022-12-22T17:57:01.357Z,99042.91
2022-12-22T17:59:30.240Z,99049.09
2022-12-22T18:02:00.748Z,99046.50
2022-12-22T18:04:29.530Z,99049.09
2022-12-22T18:06:58.161Z,99046.47
2022-12-22T18:09:27.971Z,99036.06
2022-12-22T18:11:56.649Z,99038.66
2022-12-22T18:14:25.186Z,99037.69
2022-12-22T18:16:53.848Z,99029.81
2022-12-22T18:19:23.701Z,99022.00
2022-12-22T18:21:53.114Z,99018.56
2022-12-22T18:24:21.553Z,99011.72
2022-12-22T18:26:50.050Z,99008.34
2022-12-22T18:29:19.245Z,99004.97
2022-12-22T18:31:47.714Z,99006.72
2022-12-22T18:34:16.251Z,99006.75
2022-12-22T18:36:48.018Z,98999.84
2022-12-22T18:39:19.213Z,98993.72
2022-12-22T18:41:48.307Z,99004.81
2022-12-22T18:44:17.450Z,98997.00
2022-12-22T18:46:47.231Z,98997.78
2022-12-22T18:49:16.123Z,99002.94
2022-12-22T18:51:47.007Z,98999.59
2022-12-22T18:54:24.169Z,98993.59
2022-12-22T18:56:52.964Z,98988.50
2022-12-22T18:59:26.272Z,98991.00
2022-12-22T19:02:03.617Z,98982.28
2022-12-22T19:04:32.466Z,98986.44
2022-12-22T19:07:02.447Z,98992.34
2022-12-22T19:09:31.186Z,98981.03
2022-12-22T19:11:59.580Z,98981.03
2022-12-22T19:14:28.208Z,98985.34
2022-12-22T19:16:56.711Z,98972.28
2022-12-22T19:19:25.104Z,98987.72
2022-12-22T19:21:54.358Z,98980.75
2022-12-22T19:24:24.095Z,98978.06
2022-12-22T19:26:53.483Z,98980.56
2022-12-22T19:29:22.281Z,98976.16
2022-12-22T19:31:50.694Z,98974.31
2022-12-22T19:34:21.693Z,98971.56
2022-12-22T19:36:50.933Z,98967.84
2022-12-22T19:39:19.448Z,98969.44
2022-12-22T19:41:52.134Z,98975.41
2022-12-22T19:44:23.570Z,98976.22
2022-12-22T19:46:53.588Z,98977.09
2022-12-22T19:49:24.389Z,98979.63
2022-12-22T19:51:52.925Z,98979.50
2022-12-22T19:54:21.376Z,98991.63
2022-12-22T19:56:54.562Z,98986.44
2022-12-22T19:59:35.694Z,98988.19
2022-12-22T20:02:26.566Z,98981.31
2022-12-22T20:04:56.735Z,98980.41
2022-12-22T20:07:28.037Z,98978.63
2022-12-22T20:09:56.743Z,98979.41
2022-12-22T20:12:30.743Z,98973.31
2022-12-22T20:14:59.176Z,98984.50
2022-12-22T20:17:28.025Z,98982.63
2022-12-22T20:19:56.298Z,98972.31
2022-12-22T20:22:25.137Z,98969.72
2022-12-22T20:24:55.215Z,98962.91
2022-12-22T20:27:30.268Z,98962.00
2022-12-22T20:29:58.918Z,98961.00
2022-12-22T20:32:28.485Z,98955.66
2022-12-22T20:34:57.390Z,98948.59
2022-12-22T20:37:26.433Z,98952.94
2022-12-22T20:39:54.977Z,98958.13
2022-12-22T20:42:25.838Z,98952.88
2022-12-22T20:45:03.813Z,98944.16
2022-12-22T20:47:34.264Z,98940.53
2022-12-22T20:50:02.885Z,98940.44
2022-12-22T20:52:31.316Z,98943.91
2022-12-22T20:54:59.868Z,98942.13
2022-12-22T20:57:29.082Z,98953.28
2022-12-22T20:59:58.941Z,98956.69
2022-12-22T21:02:29.452Z,98958.38
2022-12-22T21:04:58.547Z,98952.41
2022-12-22T21:07:27.057Z,98961.06
2022-12-22T21:09:55.574Z,98954.13
2022-12-22T21:12:24.003Z,98960.09
2022-12-22T21:14:53.731Z,98959.28
2022-12-22T21:17:23.456Z,98961.00
2022-12-22T21:19:52.819Z,98954.09
2022-12-22T21:22:21.374Z,98964.31
2022-12-22T21:24:49.850Z,98965.91
2022-12-22T21:27:21.267Z,98951.94
2022-12-22T21:29:49.644Z,98957.78
2022-12-22T21:32:18.247Z,98948.84
2022-12-22T21:34:48.094Z,98954.09
2022-12-22T21:37:20.506Z,98956.88
2022-12-22T21:39:49.402Z,98949.97
2022-12-22T21:42:20.150Z,98940.50
2022-12-22T21:44:48.727Z,98940.50
2022-12-22T21:47:21.336Z,98937.84
2022-12-22T21:49:51.132Z,98936.13
2022-12-22T21:52:20.128Z,98937.03
2022-12-22T21:54:48.514Z,98932.75
2022-12-22T21:57:17.249Z,98934.28
2022-12-22T21:59:45.796Z,98933.38
2022-12-22T22:02:17.484Z,98927.53
2022-12-22T22:04:52.083Z,98930.13
2022-12-22T22:07:25.439Z,98931.75
2022-12-22T22:09:54.443Z,98931.56
2022-12-22T22:12:37.324Z,98932.47
2022-12-22T22:15:08.527Z,98930.78
2022-12-22T22:17:37.399Z,98933.31
2022-12-22T22:20:09.858Z,98933.28
2022-12-22T22:22:39.503Z,98933.28
2022-12-22T22:25:09.405Z,98927.22
2022-12-22T22:27:41.804Z,98932.31
2022-12-22T22:30:16.844Z,98929.72
2022-12-22T22:32:45.771Z,98931.50
2022-12-22T22:35:14.873Z,98927.13
2022-12-22T22:37:45.861Z,98932.06
2022-12-22T22:40:16.121Z,98923.22
2022-12-22T22:42:44.586Z,98921.94
2022-12-22T22:45:15.918Z,98919.91
2022-12-22T22:47:44.401Z,98916.44
2022-12-22T22:50:13.084Z,98916.34
2022-12-22T22:52:41.667Z,98918.94
2022-12-22T22:55:12.808Z,98909.38
2022-12-22T22:57:41.321Z,98917.22
2022-12-22T23:00:12.092Z,98908.66
2022-12-22T23:02:41.006Z,98915.53
2022-12-22T23:05:12.885Z,98909.88
2022-12-22T23:07:43.987Z,98914.22
2022-12-22T23:10:13.969Z,98904.94
2022-12-22T23:12:42.355Z,98912.03
2022-12-22T23:15:11.634Z,98920.78
2022-12-22T23:17:40.298Z,98914.09
2022-12-22T23:20:10.090Z,98913.31
2022-12-22T23:22:38.966Z,98912.63
2022-12-22T23:25:08.391Z,98917.81
2022-12-22T23:27:38.398Z,98922.25
2022-12-22T23:30:08.873Z,98921.44
2022-12-22T23:32:37.351Z,98924.09
2022-12-22T23:35:07.191Z,98921.59
2022-12-22T23:37:35.557Z,98920.91
2022-12-22T23:40:33.084Z,98921.88
2022-12-22T23:42:57.021Z,98928.09
2022-12-22T23:45:25.972Z,98922.91
2022-12-22T23:47:54.475Z,98925.41
2022-12-22T23:50:23.678Z,98926.03
2022-12-22T23:52:52.843Z,98917.22
2022-12-22T23:55:21.577Z,98928.34
2022-12-22T23:57:51.836Z,98923.16
